Time;durP1;ratioP1;P1;durP2;ratioP2;P2;SDS_P1;SDS_P2;PMS_P1;PMS_P2;Temp;Humidity;BMP_temperature;BMP_pressure;BME280_temperature;BME280_humidity;BME280_pressure;Samples;Min_cycle;Max_cycle;Signal;HPM_P1;HPM_P2
2023/09/08 00:02:04;;;;;;;6.60;3.38;;;27.60;52.10;;;;;;5086129;27;45450;-70
2023/09/08 00:04:32;;;;;;;4.20;3.70;;;27.60;52.40;;;;;;5086431;27;45160;-69
2023/09/08 00:06:59;;;;;;;3.95;3.35;;;27.60;52.10;;;;;;5085889;27;47159;-70
2023/09/08 00:09:26;;;;;;;3.95;3.58;;;27.60;52.20;;;;;;5085989;27;45332;-69
2023/09/08 00:11:54;;;;;;;3.75;3.38;;;27.50;52.10;;;;;;5085910;27;45375;-70
2023/09/08 00:14:20;;;;;;;3.40;3.10;;;27.50;52.10;;;;;;5086223;27;45127;-70
2023/09/08 00:16:49;;;;;;;3.70;3.33;;;27.50;52.20;;;;;;5085551;27;46699;-68
2023/09/08 00:19:16;;;;;;;3.28;2.97;;;27.40;52.20;;;;;;5085739;27;45313;-69
2023/09/08 00:21:43;;;;;;;3.55;3.10;;;27.40;52.20;;;;;;5085894;27;45340;-69
2023/09/08 00:24:12;;;;;;;3.83;3.50;;;27.40;52.10;;;;;;5086030;27;45233;-68
2023/09/08 00:26:39;;;;;;;3.85;3.00;;;27.40;52.20;;;;;;5085582;27;46295;-69
2023/09/08 00:29:05;;;;;;;4.25;3.00;;;27.40;52.10;;;;;;5085727;27;45450;-68
2023/09/08 00:31:32;;;;;;;3.53;3.05;;;27.40;52.10;;;;;;5085859;27;45385;-69
2023/09/08 00:34:01;;;;;;;3.47;3.17;;;27.40;52.30;;;;;;5086009;27;45316;-68
2023/09/08 00:36:27;;;;;;;3.92;3.22;;;27.40;52.20;;;;;;5085476;27;45312;-69
2023/09/08 00:38:54;;;;;;;5.03;3.50;;;27.30;52.80;;;;;;5085476;27;45112;-69
2023/09/08 00:41:23;;;;;;;4.15;3.30;;;27.30;52.20;;;;;;5085499;27;45374;-68
2023/09/08 00:43:50;;;;;;;3.58;3.28;;;27.30;52.20;;;;;;5085830;27;45358;-68
2023/09/08 00:46:17;;;;;;;3.17;2.90;;;27.30;52.20;;;;;;5088007;27;46795;-69
2023/09/08 00:48:43;;;;;;;3.22;2.92;;;27.30;52.20;;;;;;5088995;27;45207;-68
2023/09/08 00:51:12;;;;;;;4.03;3.25;;;27.30;52.20;;;;;;5089112;27;45291;-69
2023/09/08 00:53:38;;;;;;;5.30;2.95;;;27.30;52.20;;;;;;5089220;27;45370;-69
2023/09/08 00:56:05;;;;;;;2.83;2.63;;;27.30;52.10;;;;;;5088824;27;46398;-69
2023/09/08 00:58:32;;;;;;;3.28;2.97;;;27.20;52.10;;;;;;5088930;27;45304;-69
2023/09/08 01:00:59;;;;;;;3.00;2.80;;;27.20;52.10;;;;;;5088999;27;45256;-68
2023/09/08 01:03:26;;;;;;;4.53;3.20;;;27.20;52.20;;;;;;5089301;27;45592;-68
2023/09/08 01:05:53;;;;;;;3.20;2.90;;;27.20;52.20;;;;;;5088828;27;45457;-69
2023/09/08 01:08:21;;;;;;;3.50;3.00;;;27.20;52.20;;;;;;5088622;27;45371;-68
2023/09/08 01:10:48;;;;;;;3.75;3.00;;;27.10;52.20;;;;;;5088865;27;45303;-68
2023/09/08 01:13:14;;;;;;;4.03;3.13;;;27.10;52.20;;;;;;5088962;27;45310;-69
2023/09/08 01:15:41;;;;;;;3.35;2.95;;;27.10;52.20;;;;;;5088512;27;46359;-69
2023/09/08 01:18:08;;;;;;;3.10;2.90;;;27.10;52.20;;;;;;5088511;27;45350;-69
2023/09/08 01:20:42;;;;;;;2.95;2.75;;;27.10;52.20;;;;;;5088816;27;45327;-69
2023/09/08 01:23:18;;;;;;;3.72;2.90;;;27.10;52.20;;;;;;5088811;27;45384;-69
2023/09/08 01:25:47;;;;;;;3.03;2.83;;;27.10;52.20;;;;;;5088487;27;45466;-69
2023/09/08 01:28:15;;;;;;;4.50;3.10;;;27.10;52.20;;;;;;5088418;27;45127;-69
2023/09/08 01:30:42;;;;;;;2.97;2.67;;;27.10;52.20;;;;;;5088531;27;45315;-69
2023/09/08 01:33:09;;;;;;;3.25;2.85;;;27.10;52.20;;;;;;5088610;27;45419;-69
2023/09/08 01:35:36;;;;;;;3.45;3.00;;;27.00;52.10;;;;;;5088412;27;46528;-69
2023/09/08 01:38:03;;;;;;;3.67;3.38;;;27.00;52.10;;;;;;5088115;27;45273;-69
2023/09/08 01:40:30;;;;;;;3.45;2.90;;;27.00;52.10;;;;;;5088320;27;45300;-68
2023/09/08 01:42:58;;;;;;;3.35;3.05;;;27.00;52.20;;;;;;5088342;27;45340;-68
2023/09/08 01:45:25;;;;;;;3.10;2.72;;;27.00;52.20;;;;;;5088153;27;45383;-68
2023/09/08 01:47:51;;;;;;;3.58;3.28;;;27.00;52.20;;;;;;5088087;27;45270;-68
2023/09/08 01:50:21;;;;;;;3.30;2.90;;;27.00;52.20;;;;;;5088193;27;45181;-69
2023/09/08 01:52:48;;;;;;;3.05;2.75;;;27.00;52.20;;;;;;5088316;27;45363;-69
2023/09/08 01:55:16;;;;;;;3.17;2.80;;;26.90;52.20;;;;;;5087976;27;45388;-68
2023/09/08 01:57:42;;;;;;;3.55;2.97;;;26.90;52.20;;;;;;5086567;27;45327;-68
2023/09/08 02:00:12;;;;;;;3.15;2.85;;;26.90;52.20;;;;;;5088080;27;45503;-69
2023/09/08 02:02:39;;;;;;;3.47;3.00;;;26.90;52.20;;;;;;5088188;27;45471;-68
2023/09/08 02:05:07;;;;;;;3.55;3.10;;;26.90;52.30;;;;;;5087877;27;46312;-68
2023/09/08 02:07:34;;;;;;;3.05;2.75;;;26.90;52.30;;;;;;5087755;27;45310;-68
2023/09/08 02:10:01;;;;;;;3.10;2.78;;;26.90;52.90;;;;;;5087941;27;45248;-68
2023/09/08 02:12:28;;;;;;;3.22;2.92;;;26.80;52.20;;;;;;5087941;27;45435;-68
2023/09/08 02:14:55;;;;;;;2.90;2.70;;;26.80;52.30;;;;;;5087713;27;46297;-69
2023/09/08 02:17:23;;;;;;;3.13;2.67;;;26.80;52.20;;;;;;5087706;27;45335;-68
2023/09/08 02:19:50;;;;;;;3.35;3.05;;;26.80;52.20;;;;;;5087913;27;45268;-68
2023/09/08 02:22:16;;;;;;;3.00;2.70;;;26.80;52.20;;;;;;5087925;27;45461;-68
2023/09/08 02:24:43;;;;;;;3.15;2.85;;;26.80;52.20;;;;;;5087568;27;45348;-68
2023/09/08 02:27:10;;;;;;;3.75;3.28;;;26.80;52.20;;;;;;5087487;27;45378;-68
2023/09/08 02:29:37;;;;;;;3.33;3.03;;;26.80;52.20;;;;;;5087661;27;45319;-68
2023/09/08 02:32:04;;;;;;;4.65;3.40;;;26.80;52.20;;;;;;5087715;27;45261;-68
2023/09/08 02:34:36;;;;;;;4.00;2.90;;;26.70;52.20;;;;;;5087514;27;47311;-68
2023/09/08 02:37:03;;;;;;;3.33;3.03;;;26.80;52.20;;;;;;5087340;27;45302;-68
2023/09/08 02:39:30;;;;;;;3.03;2.83;;;26.70;52.20;;;;;;5087504;27;45317;-68
2023/09/08 02:41:57;;;;;;;2.88;2.67;;;26.70;52.20;;;;;;5087282;27;45452;-68
2023/09/08 02:44:25;;;;;;;3.45;3.15;;;26.70;52.20;;;;;;5087299;27;45327;-68
2023/09/08 02:46:52;;;;;;;2.90;2.70;;;26.70;52.20;;;;;;5087162;27;45347;-68
2023/09/08 02:49:19;;;;;;;4.45;3.00;;;26.70;52.20;;;;;;5087542;28;45311;-69
2023/09/08 02:51:47;;;;;;;3.90;2.80;;;26.60;52.20;;;;;;5087500;27;45316;-68
2023/09/08 02:54:13;;;;;;;3.03;2.58;;;26.60;52.20;;;;;;5086970;27;45377;-68
2023/09/08 02:56:40;;;;;;;3.00;2.80;;;26.60;52.20;;;;;;5086999;27;45412;-68
2023/09/08 02:59:07;;;;;;;3.33;3.03;;;26.60;52.20;;;;;;5087051;27;45272;-68
2023/09/08 03:01:34;;;;;;;3.03;2.72;;;26.60;52.20;;;;;;5087175;27;45302;-68
2023/09/08 03:04:01;;;;;;;2.80;2.60;;;26.60;52.30;;;;;;5086929;27;46636;-68
2023/09/08 03:06:28;;;;;;;3.40;3.10;;;26.60;52.20;;;;;;5087022;27;45319;-68
2023/09/08 03:08:56;;;;;;;3.10;2.80;;;26.60;52.30;;;;;;5086521;27;45521;-68
2023/09/08 03:11:22;;;;;;;3.38;3.08;;;26.50;52.20;;;;;;5087072;27;45318;-68
2023/09/08 03:13:49;;;;;;;3.03;2.83;;;26.50;52.20;;;;;;5086747;27;46376;-68
2023/09/08 03:16:16;;;;;;;3.20;2.90;;;26.50;52.20;;;;;;5086777;27;45298;-68
2023/09/08 03:18:43;;;;;;;2.83;2.47;;;26.50;52.30;;;;;;5086916;27;45257;-68
2023/09/08 03:21:10;;;;;;;3.17;2.88;;;26.50;52.30;;;;;;5087048;27;45341;-68
2023/09/08 03:23:37;;;;;;;3.78;2.80;;;26.50;52.20;;;;;;5086623;27;45452;-68
2023/09/08 03:26:06;;;;;;;2.83;2.50;;;26.50;52.20;;;;;;5086581;27;45327;-68
2023/09/08 03:28:33;;;;;;;3.40;3.10;;;26.50;52.90;;;;;;5086731;27;45261;-68
2023/09/08 03:31:00;;;;;;;3.22;2.92;;;26.50;52.30;;;;;;5084188;27;45375;-68
2023/09/08 03:33:26;;;;;;;4.75;2.75;;;26.40;52.20;;;;;;5086444;27;45308;-68
2023/09/08 03:35:53;;;;;;;3.00;2.70;;;26.40;52.20;;;;;;5086475;27;45353;-68
2023/09/08 03:38:20;;;;;;;3.20;2.78;;;26.40;52.20;;;;;;5086553;27;45142;-68
2023/09/08 03:40:47;;;;;;;3.30;3.00;;;26.40;52.20;;;;;;5086745;27;45287;-68
2023/09/08 03:43:15;;;;;;;3.72;3.05;;;26.40;52.20;;;;;;5085995;27;45380;-68
2023/09/08 03:45:42;;;;;;;4.78;2.92;;;26.40;52.20;;;;;;5086372;27;45363;-68
2023/09/08 03:48:10;;;;;;;2.78;2.58;;;26.40;52.20;;;;;;5086393;27;45336;-68
2023/09/08 03:50:37;;;;;;;2.78;2.58;;;26.40;52.20;;;;;;5086646;27;45257;-68
2023/09/08 03:53:04;;;;;;;3.20;2.90;;;26.30;52.20;;;;;;5086043;27;46397;-68
2023/09/08 03:55:31;;;;;;;3.28;2.63;;;26.30;52.20;;;;;;5086170;27;45307;-68
2023/09/08 03:57:58;;;;;;;3.17;2.88;;;26.30;52.30;;;;;;5086184;27;45443;-68
2023/09/08 04:00:26;;;;;;;3.63;3.25;;;26.30;52.30;;;;;;5086352;27;45508;-68
2023/09/08 04:02:53;;;;;;;3.33;2.83;;;26.30;52.30;;;;;;5085894;27;45339;-68
2023/09/08 04:05:20;;;;;;;3.28;2.97;;;26.30;52.30;;;;;;5085941;27;45228;-69
2023/09/08 04:07:47;;;;;;;3.78;2.83;;;26.20;52.20;;;;;;5086325;27;45471;-68
2023/09/08 04:10:14;;;;;;;3.30;3.00;;;26.20;52.30;;;;;;5086375;27;45183;-68
2023/09/08 04:12:41;;;;;;;2.80;2.60;;;26.20;52.90;;;;;;5085705;27;45473;-68
2023/09/08 04:15:08;;;;;;;3.20;2.90;;;26.20;52.30;;;;;;5085908;27;45291;-68
2023/09/08 04:17:37;;;;;;;3.38;3.05;;;26.20;52.30;;;;;;5085868;27;45380;-68
2023/09/08 04:20:05;;;;;;;3.08;2.78;;;26.20;52.30;;;;;;5085166;27;45299;-68
2023/09/08 04:22:32;;;;;;;3.22;2.92;;;26.20;52.30;;;;;;5085668;27;46298;-68
2023/09/08 04:24:59;;;;;;;3.20;2.90;;;26.10;52.20;;;;;;5085914;27;45374;-68
2023/09/08 04:27:26;;;;;;;2.88;2.65;;;26.10;52.20;;;;;;5085906;27;45305;-68
2023/09/08 04:29:52;;;;;;;3.00;2.80;;;26.10;52.20;;;;;;5085977;27;45449;-68
2023/09/08 04:32:19;;;;;;;3.13;2.83;;;26.10;52.20;;;;;;5085505;27;46402;-68
2023/09/08 04:34:49;;;;;;;3.05;2.80;;;26.10;52.30;;;;;;5085909;27;45278;-68
2023/09/08 04:37:15;;;;;;;3.03;2.80;;;26.10;52.20;;;;;;5085591;27;45366;-68
2023/09/08 04:39:42;;;;;;;3.20;2.90;;;26.10;52.90;;;;;;5085845;27;45469;-68
2023/09/08 04:42:09;;;;;;;3.35;2.88;;;26.10;52.30;;;;;;5085265;27;45261;-68
2023/09/08 04:44:36;;;;;;;3.05;2.70;;;26.00;52.20;;;;;;5085452;27;45258;-67
2023/09/08 04:47:03;;;;;;;7.28;3.05;;;26.00;52.20;;;;;;5085705;27;45307;-68
2023/09/08 04:49:30;;;;;;;4.32;3.22;;;26.10;52.30;;;;;;5085739;27;44805;-68
2023/09/08 04:51:58;;;;;;;4.25;2.65;;;26.00;52.20;;;;;;5083441;27;46518;-68
2023/09/08 04:54:27;;;;;;;3.25;3.00;;;26.00;52.30;;;;;;5091700;27;45269;-68
2023/09/08 04:56:53;;;;;;;5.78;3.25;;;26.00;52.30;;;;;;5106039;27;45314;-68
2023/09/08 04:59:20;;;;;;;3.47;2.78;;;26.00;52.70;;;;;;5090784;27;45415;-68
2023/09/08 05:01:47;;;;;;;3.67;2.90;;;26.00;52.10;;;;;;5074361;27;45353;-68
2023/09/08 05:04:14;;;;;;;3.08;2.80;;;26.00;52.10;;;;;;5069628;27;45372;-69
2023/09/08 05:06:41;;;;;;;2.83;2.63;;;26.00;52.10;;;;;;5084786;27;45295;-68
2023/09/08 05:09:09;;;;;;;3.22;2.92;;;26.00;52.10;;;;;;5074215;27;45315;-68
2023/09/08 05:11:36;;;;;;;5.00;2.58;;;25.90;52.00;;;;;;5063953;28;45509;-68
2023/09/08 05:14:03;;;;;;;4.82;2.60;;;25.90;52.00;;;;;;5063836;28;45469;-68
2023/09/08 05:16:39;;;;;;;3.08;2.78;;;25.90;51.90;;;;;;5064390;28;45434;-68
2023/09/08 05:19:06;;;;;;;2.80;2.60;;;25.90;51.90;;;;;;5064492;28;45161;-68
2023/09/08 05:21:32;;;;;;;6.18;2.55;;;25.90;52.00;;;;;;5076397;28;46440;-68
2023/09/08 05:23:59;;;;;;;4.63;2.90;;;25.90;51.80;;;;;;5084175;27;45522;-68
2023/09/08 05:26:27;;;;;;;3.00;2.70;;;25.90;51.90;;;;;;5084519;27;45435;-69
2023/09/08 05:28:54;;;;;;;4.05;3.05;;;25.80;51.90;;;;;;5084723;27;45462;-68
2023/09/08 05:31:21;;;;;;;3.97;2.80;;;25.80;51.80;;;;;;5085249;27;45306;-69
2023/09/08 05:33:48;;;;;;;3.22;2.78;;;25.80;51.80;;;;;;5087566;27;45300;-68
2023/09/08 05:36:15;;;;;;;4.20;2.67;;;25.80;51.80;;;;;;5087558;27;45521;-68
2023/09/08 05:38:41;;;;;;;3.90;2.67;;;25.80;51.90;;;;;;5087684;27;45498;-68
2023/09/08 05:41:08;;;;;;;3.35;2.60;;;25.80;51.80;;;;;;5087319;27;45462;-68
2023/09/08 05:43:36;;;;;;;3.65;2.88;;;25.80;51.80;;;;;;5087712;27;45404;-68
2023/09/08 05:46:03;;;;;;;3.65;2.95;;;25.80;51.80;;;;;;5087644;27;45329;-68
2023/09/08 05:48:30;;;;;;;4.45;2.70;;;25.80;51.70;;;;;;5087805;27;45439;-68
2023/09/08 05:50:58;;;;;;;3.13;2.83;;;25.80;51.80;;;;;;5087480;27;47527;-68
2023/09/08 05:53:25;;;;;;;3.80;3.30;;;25.80;51.80;;;;;;5087432;27;45388;-68
2023/09/08 05:55:52;;;;;;;3.08;2.78;;;25.80;51.90;;;;;;5087667;27;45334;-69
2023/09/08 05:58:19;;;;;;;5.43;2.67;;;25.80;51.90;;;;;;5087575;27;45412;-68
2023/09/08 06:00:47;;;;;;;3.33;2.78;;;25.80;52.00;;;;;;5087161;27;46449;-68
2023/09/08 06:03:14;;;;;;;4.13;3.22;;;25.80;52.00;;;;;;5087341;27;45432;-68
2023/09/08 06:05:41;;;;;;;4.82;3.08;;;25.70;51.90;;;;;;5087434;27;45396;-68
2023/09/08 06:08:08;;;;;;;3.10;2.90;;;25.70;52.00;;;;;;5087672;27;45327;-68
2023/09/08 06:10:34;;;;;;;3.15;2.85;;;25.70;52.10;;;;;;5087354;27;46240;-68
2023/09/08 06:13:01;;;;;;;4.47;3.08;;;25.80;52.10;;;;;;5086861;27;45342;-68
2023/09/08 06:15:38;;;;;;;3.72;3.15;;;25.70;52.10;;;;;;5083515;27;45266;-68
2023/09/08 06:18:19;;;;;;;10.30;3.00;;;25.70;52.10;;;;;;5078175;28;45487;-67
2023/09/08 06:20:46;;;;;;;8.10;3.40;;;25.70;52.10;;;;;;5086116;27;46670;-68
2023/09/08 06:23:13;;;;;;;3.20;2.90;;;25.70;52.70;;;;;;5066164;28;45371;-68
2023/09/08 06:25:40;;;;;;;3.22;2.92;;;25.70;52.10;;;;;;5066573;28;45695;-69
2023/09/08 06:28:07;;;;;;;4.70;3.47;;;25.70;52.10;;;;;;5097682;27;45382;-69
2023/09/08 06:30:34;;;;;;;6.97;3.10;;;25.80;52.20;;;;;;5095658;27;46674;-68
2023/09/08 06:33:01;;;;;;;6.15;3.38;;;25.80;52.20;;;;;;5089439;27;45389;-68
2023/09/08 06:35:30;;;;;;;5.45;3.53;;;25.80;52.20;;;;;;5090224;27;45367;-68
2023/09/08 06:37:57;;;;;;;4.88;3.33;;;25.80;52.20;;;;;;5108325;27;45398;-69
2023/09/08 06:40:24;;;;;;;3.60;3.28;;;25.80;52.20;;;;;;5107325;27;45464;-68
2023/09/08 06:42:51;;;;;;;7.10;3.58;;;25.80;52.20;;;;;;5105705;27;45590;-68
2023/09/08 06:45:18;;;;;;;4.10;3.30;;;25.80;52.20;;;;;;5107197;27;45425;-69
2023/09/08 06:47:45;;;;;;;4.75;3.10;;;25.80;52.20;;;;;;5102445;27;45392;-69
2023/09/08 06:50:12;;;;;;;8.07;3.13;;;25.80;52.20;;;;;;5085984;27;46680;-69
2023/09/08 06:52:40;;;;;;;4.68;3.38;;;25.80;52.30;;;;;;5086733;27;45379;-68
2023/09/08 06:55:07;;;;;;;3.90;3.45;;;25.80;52.30;;;;;;5086287;27;45372;-68
2023/09/08 06:57:34;;;;;;;5.35;3.53;;;25.80;52.40;;;;;;5087072;27;45304;-67
2023/09/08 07:00:05;;;;;;;4.90;3.20;;;25.80;52.40;;;;;;5086661;27;46306;-68
2023/09/08 07:02:32;;;;;;;5.63;3.65;;;25.80;52.40;;;;;;5086824;27;45465;-68
2023/09/08 07:04:59;;;;;;;7.78;3.65;;;25.80;52.40;;;;;;5086613;27;45383;-68
2023/09/08 07:07:26;;;;;;;3.88;3.22;;;25.80;52.40;;;;;;5086756;27;45391;-67
2023/09/08 07:09:54;;;;;;;4.13;3.20;;;25.90;52.50;;;;;;5086266;27;45346;-68
2023/09/08 07:12:21;;;;;;;6.07;3.47;;;25.90;52.50;;;;;;5083354;27;45448;-68
2023/09/08 07:14:47;;;;;;;4.72;3.50;;;25.90;52.40;;;;;;5086685;27;45435;-67
2023/09/08 07:17:14;;;;;;;7.80;4.47;;;25.90;52.50;;;;;;5084193;27;45386;-72
2023/09/08 07:19:41;;;;;;;8.07;4.00;;;25.90;52.80;;;;;;5076798;27;47390;-71
2023/09/08 07:22:08;;;;;;;5.82;3.17;;;25.90;54.00;;;;;;5083397;27;45375;-71
2023/09/08 07:24:35;;;;;;;8.77;4.65;;;25.90;53.40;;;;;;5086818;27;45332;-70
2023/09/08 07:27:03;;;;;;;6.10;4.10;;;25.90;55.80;;;;;;5084999;27;45778;-73
2023/09/08 07:29:30;;;;;;;6.30;4.20;;;25.90;56.10;;;;;;5084405;27;45408;-70
2023/09/08 07:31:57;;;;;;;6.50;4.70;;;25.90;55.20;;;;;;5084917;27;45156;-69
2023/09/08 07:34:24;;;;;;;5.38;4.03;;;25.90;57.30;;;;;;5087591;27;45350;-72
2023/09/08 07:36:51;;;;;;;8.52;5.45;;;26.00;56.70;;;;;;5083754;27;45702;-68
2023/09/08 07:39:17;;;;;;;7.55;4.50;;;26.00;56.90;;;;;;5081146;27;46672;-70
2023/09/08 07:41:44;;;;;;;9.38;4.25;;;26.10;56.20;;;;;;5080280;27;45418;-69
2023/09/08 07:44:13;;;;;;;7.13;4.13;;;26.30;56.00;;;;;;5086946;27;45344;-69
2023/09/08 07:46:40;;;;;;;7.13;3.97;;;26.40;55.70;;;;;;5088416;27;45469;-65
2023/09/08 07:49:07;;;;;;;4.97;3.80;;;26.50;54.90;;;;;;5084959;27;46573;-70
2023/09/08 07:51:33;;;;;;;6.00;3.70;;;26.60;55.20;;;;;;5083580;27;45297;-66
2023/09/08 07:54:03;;;;;;;6.60;4.55;;;26.70;54.70;;;;;;5087507;27;45414;-71
2023/09/08 07:56:30;;;;;;;8.27;4.28;;;26.80;55.70;;;;;;5087614;27;45560;-76
2023/09/08 07:58:57;;;;;;;11.05;3.72;;;26.80;56.20;;;;;;5089150;27;45764;-75
2023/09/08 08:01:27;;;;;;;26.00;21.60;;;26.90;54.90;;;;;;5086599;27;45488;-72
2023/09/08 08:04:03;;;;;;;13.65;11.00;;;27.00;54.80;;;;;;5074556;28;45414;-70
2023/09/08 08:06:34;;;;;;;9.02;6.88;;;27.00;54.90;;;;;;5081645;27;45371;-72
2023/09/08 08:09:01;;;;;;;7.55;5.88;;;27.10;55.40;;;;;;5084035;27;45478;-75
2023/09/08 08:11:28;;;;;;;8.73;5.15;;;27.10;55.60;;;;;;5087040;27;45353;-70
2023/09/08 08:13:56;;;;;;;7.97;4.97;;;27.20;54.70;;;;;;5090616;27;45317;-71
2023/09/08 08:16:23;;;;;;;8.32;4.78;;;27.30;56.00;;;;;;5068174;28;45380;-68
2023/09/08 08:18:51;;;;;;;9.30;5.47;;;27.40;54.30;;;;;;5082932;27;46410;-71
2023/09/08 08:21:18;;;;;;;6.85;4.88;;;27.50;56.00;;;;;;5083388;27;45386;-74
2023/09/08 08:23:45;;;;;;;8.07;4.40;;;27.50;55.10;;;;;;5084869;27;45517;-73
2023/09/08 08:26:11;;;;;;;5.75;4.20;;;27.60;55.30;;;;;;5087491;27;45490;-70
2023/09/08 08:28:38;;;;;;;8.07;4.47;;;27.70;53.90;;;;;;5086758;27;45608;-73
2023/09/08 08:31:05;;;;;;;14.02;4.45;;;27.80;54.00;;;;;;5083695;27;45428;-74
2023/09/08 08:33:33;;;;;;;6.65;4.65;;;27.80;53.00;;;;;;5085759;27;45372;-76
2023/09/08 08:36:01;;;;;;;5.78;4.65;;;27.80;54.20;;;;;;5089677;27;45496;-70
2023/09/08 08:38:28;;;;;;;8.95;4.25;;;27.90;54.00;;;;;;5085407;27;46551;-73
2023/09/08 08:40:55;;;;;;;16.25;5.15;;;27.90;52.40;;;;;;5082993;27;45392;-69
2023/09/08 08:43:22;;;;;;;12.68;5.22;;;28.00;53.00;;;;;;5084860;27;45265;-69
2023/09/08 08:45:49;;;;;;;10.55;5.32;;;28.10;53.60;;;;;;5085637;27;45412;-75
2023/09/08 08:48:15;;;;;;;15.43;4.38;;;28.10;54.00;;;;;;5085133;27;46367;-69
2023/09/08 08:50:42;;;;;;;10.60;4.30;;;28.10;52.90;;;;;;5083996;27;45525;-75
2023/09/08 08:53:11;;;;;;;8.65;4.55;;;28.10;52.60;;;;;;5086131;27;45303;-71
2023/09/08 08:55:38;;;;;;;39.20;6.30;;;28.20;52.60;;;;;;5082931;27;45371;-70
2023/09/08 08:58:05;;;;;;;15.98;5.38;;;28.20;52.70;;;;;;5084975;27;46268;-69
2023/09/08 09:00:35;;;;;;;18.10;5.40;;;28.40;52.10;;;;;;5084237;27;45473;-70
2023/09/08 09:03:02;;;;;;;14.98;5.60;;;28.40;52.80;;;;;;5083998;27;45325;-70
2023/09/08 09:05:28;;;;;;;13.27;5.28;;;28.50;53.40;;;;;;5084519;27;45397;-71
2023/09/08 09:07:55;;;;;;;7.57;5.20;;;28.60;52.40;;;;;;5093090;27;46377;-73
2023/09/08 09:10:23;;;;;;;12.68;4.82;;;28.60;52.50;;;;;;5086556;27;45380;-71
2023/09/08 09:12:50;;;;;;;9.30;4.72;;;28.60;51.70;;;;;;5089304;27;45335;-72
2023/09/08 09:15:21;;;;;;;7.95;4.57;;;28.60;53.20;;;;;;5077766;27;45432;-71
2023/09/08 09:18:01;;;;;;;6.13;4.15;;;28.60;52.00;;;;;;5086367;27;46243;-73
2023/09/08 09:20:28;;;;;;;14.95;4.82;;;28.70;53.20;;;;;;5093602;27;45344;-70
2023/09/08 09:22:55;;;;;;;7.35;4.13;;;28.80;52.90;;;;;;5085638;27;45352;-72
2023/09/08 09:25:24;;;;;;;5.47;4.47;;;28.90;51.80;;;;;;5090162;27;45497;-70
2023/09/08 09:27:53;;;;;;;5.72;3.83;;;28.90;51.60;;;;;;5088616;27;45517;-75
2023/09/08 09:30:20;;;;;;;9.23;3.97;;;28.90;51.40;;;;;;5091132;27;45358;-75
2023/09/08 09:32:49;;;;;;;6.30;5.10;;;28.90;51.20;;;;;;5086237;27;45367;-76
2023/09/08 09:35:16;;;;;;;7.70;4.50;;;28.90;51.50;;;;;;5092596;27;45490;-74
2023/09/08 09:37:43;;;;;;;6.18;4.10;;;28.90;52.50;;;;;;5089392;27;45423;-74
2023/09/08 09:40:11;;;;;;;5.18;4.13;;;28.90;52.40;;;;;;5090668;27;45256;-74
2023/09/08 09:42:41;;;;;;;16.23;5.40;;;28.90;52.60;;;;;;5089090;27;45431;-70
2023/09/08 09:45:09;;;;;;;19.48;6.05;;;29.00;52.60;;;;;;5087793;27;45531;-70
2023/09/08 09:47:36;;;;;;;10.88;4.50;;;29.10;52.50;;;;;;5080499;27;46607;-73
2023/09/08 09:50:03;;;;;;;15.45;4.50;;;29.20;52.50;;;;;;5081405;27;45516;-73
2023/09/08 09:52:31;;;;;;;7.93;4.18;;;29.20;51.50;;;;;;5086355;27;45418;-70
2023/09/08 09:54:58;;;;;;;9.82;4.40;;;29.30;51.40;;;;;;5087546;27;45307;-68
2023/09/08 09:57:25;;;;;;;14.40;5.43;;;29.30;51.40;;;;;;5085862;27;46413;-66
2023/09/08 09:59:54;;;;;;;13.38;4.75;;;29.30;51.40;;;;;;5087290;27;45419;-64
2023/09/08 10:02:21;;;;;;;17.27;4.85;;;29.20;51.70;;;;;;5086293;27;45504;-66
2023/09/08 10:04:49;;;;;;;12.05;4.78;;;29.20;51.80;;;;;;5088961;27;45378;-67
2023/09/08 10:07:16;;;;;;;11.60;4.93;;;29.20;52.10;;;;;;5087440;27;45349;-74
2023/09/08 10:09:42;;;;;;;9.80;4.82;;;29.10;52.00;;;;;;5085232;27;45321;-71
2023/09/08 10:12:09;;;;;;;8.10;4.85;;;29.10;51.90;;;;;;5089174;27;45450;-72
2023/09/08 10:14:37;;;;;;;12.05;4.63;;;29.20;53.30;;;;;;5088432;27;45530;-71
2023/09/08 10:17:05;;;;;;;31.77;6.35;;;29.20;52.20;;;;;;5082527;27;46139;-69
2023/09/08 10:19:33;;;;;;;15.18;4.93;;;29.30;52.80;;;;;;5086234;27;45627;-65
2023/09/08 10:22:01;;;;;;;11.82;4.45;;;29.30;52.00;;;;;;5088026;27;45494;-66
2023/09/08 10:24:28;;;;;;;12.02;4.10;;;29.40;51.70;;;;;;5085016;27;45382;-67
2023/09/08 10:26:59;;;;;;;10.75;4.60;;;29.40;51.90;;;;;;5086617;27;45504;-70
2023/09/08 10:29:26;;;;;;;14.82;5.47;;;29.50;52.00;;;;;;5087685;27;45498;-65
2023/09/08 10:31:53;;;;;;;11.00;4.40;;;29.50;52.00;;;;;;5086382;27;45261;-65
2023/09/08 10:34:21;;;;;;;6.03;4.45;;;29.60;51.70;;;;;;5082618;27;45399;-66
2023/09/08 10:36:48;;;;;;;8.55;4.57;;;29.60;52.30;;;;;;5086578;27;48216;-67
2023/09/08 10:39:32;;;;;;;9.77;4.53;;;29.60;52.30;;;;;;5080534;27;45406;-65
2023/09/08 10:42:20;;;;;;;12.00;4.75;;;29.70;51.60;;;;;;5089131;27;45249;-66
2023/09/08 10:44:56;;;;;;;9.00;4.50;;;29.70;51.90;;;;;;5076757;28;45507;-65
2023/09/08 10:47:23;;;;;;;6.60;4.28;;;29.80;51.90;;;;;;5085854;27;47296;-64
2023/09/08 10:49:53;;;;;;;8.57;4.30;;;29.80;51.20;;;;;;5086198;27;45309;-66
2023/09/08 10:52:22;;;;;;;6.70;4.28;;;29.90;50.70;;;;;;5076426;27;45370;-65
2023/09/08 10:54:50;;;;;;;6.40;4.22;;;29.90;51.00;;;;;;5073440;28;45549;-66
2023/09/08 10:57:17;;;;;;;5.25;4.00;;;29.90;50.70;;;;;;5073690;27;45468;-65
2023/09/08 10:59:46;;;;;;;5.10;4.07;;;30.00;51.30;;;;;;5072250;28;45475;-71
2023/09/08 11:02:34;;;;;;;6.55;4.28;;;30.00;51.70;;;;;;5074358;27;45414;-70
2023/09/08 11:05:03;;;;;;;8.30;4.20;;;30.10;51.80;;;;;;5076412;27;45489;-68
2023/09/08 11:07:29;;;;;;;9.32;4.30;;;30.20;50.70;;;;;;5073227;27;46566;-67
2023/09/08 11:09:56;;;;;;;9.98;4.55;;;30.20;52.60;;;;;;5084343;27;45362;-70
2023/09/08 11:12:24;;;;;;;7.93;3.92;;;30.40;52.00;;;;;;5085428;27;45316;-71
2023/09/08 11:14:51;;;;;;;9.60;4.25;;;30.50;51.20;;;;;;5082186;28;45427;-66
2023/09/08 11:17:17;;;;;;;19.52;5.25;;;30.60;51.30;;;;;;5081350;27;46316;-68
2023/09/08 11:19:47;;;;;;;13.32;4.60;;;30.70;51.60;;;;;;5080855;27;45348;-69
2023/09/08 11:22:15;;;;;;;10.60;5.65;;;30.80;51.80;;;;;;5084905;27;45258;-66
2023/09/08 11:24:42;;;;;;;18.25;5.78;;;30.90;51.00;;;;;;5086159;27;45254;-66
2023/09/08 11:27:09;;;;;;;11.90;5.45;;;31.00;50.30;;;;;;5085479;27;46384;-67
2023/09/08 11:29:36;;;;;;;11.70;5.75;;;31.10;50.30;;;;;;5075013;27;45463;-66
2023/09/08 11:32:04;;;;;;;9.65;5.43;;;31.10;50.80;;;;;;5084686;27;45391;-68
2023/09/08 11:34:30;;;;;;;10.63;6.15;;;31.30;51.50;;;;;;5076613;27;45379;-66
2023/09/08 11:36:58;;;;;;;7.78;5.63;;;31.40;50.40;;;;;;5085319;27;46288;-66
2023/09/08 11:39:26;;;;;;;20.95;6.45;;;31.40;49.80;;;;;;5079415;28;45675;-68
2023/09/08 11:41:53;;;;;;;20.83;6.32;;;31.50;49.60;;;;;;5081308;27;45299;-68
2023/09/08 11:44:20;;;;;;;25.42;7.03;;;31.60;50.50;;;;;;5083837;27;45199;-68
2023/09/08 11:46:48;;;;;;;18.15;6.22;;;31.60;50.70;;;;;;5084732;27;48936;-68
2023/09/08 11:49:15;;;;;;;17.35;6.10;;;31.70;51.20;;;;;;5082124;27;45489;-70
2023/09/08 11:51:41;;;;;;;19.00;6.28;;;31.80;50.30;;;;;;5071864;28;45513;-66
2023/09/08 11:54:08;;;;;;;16.33;5.60;;;31.90;50.60;;;;;;5076028;27;46807;-68
2023/09/08 11:56:36;;;;;;;11.65;5.05;;;32.00;50.20;;;;;;5076858;28;45467;-68
2023/09/08 11:59:03;;;;;;;20.48;5.90;;;32.10;50.40;;;;;;5077917;27;45525;-68
2023/09/08 12:01:30;;;;;;;8.88;4.40;;;32.20;50.60;;;;;;5081397;27;45565;-67
2023/09/08 12:03:57;;;;;;;9.30;5.00;;;32.30;49.20;;;;;;5077311;27;45536;-67
2023/09/08 12:06:25;;;;;;;10.55;4.97;;;32.40;49.20;;;;;;5080722;27;45552;-68
2023/09/08 12:08:52;;;;;;;11.82;5.30;;;32.50;49.30;;;;;;5068942;28;46396;-70
2023/09/08 12:11:19;;;;;;;12.98;5.22;;;32.60;49.40;;;;;;5078162;28;45486;-71
2023/09/08 12:13:47;;;;;;;12.57;4.88;;;32.70;49.10;;;;;;5081011;27;45459;-67
2023/09/08 12:16:20;;;;;;;12.23;5.10;;;32.80;49.10;;;;;;5072606;27;47550;-68
2023/09/08 12:18:47;;;;;;;14.88;4.88;;;32.90;49.10;;;;;;5067508;28;45380;-68
2023/09/08 12:21:14;;;;;;;15.52;5.18;;;33.00;49.00;;;;;;5082682;27;45429;-69
2023/09/08 12:23:51;;;;;;;10.02;4.65;;;33.00;48.90;;;;;;5077743;27;45600;-72
2023/09/08 12:26:17;;;;;;;5.72;4.28;;;33.10;49.10;;;;;;5069687;28;48588;-69
2023/09/08 12:28:44;;;;;;;13.65;4.70;;;33.20;48.60;;;;;;5083975;27;45781;-66
2023/09/08 12:31:13;;;;;;;7.97;4.20;;;33.30;48.40;;;;;;5085149;27;45438;-70
2023/09/08 12:33:40;;;;;;;12.43;4.50;;;33.30;48.10;;;;;;5084626;27;45335;-67
2023/09/08 12:36:11;;;;;;;8.80;4.32;;;33.40;48.30;;;;;;5084262;27;46337;-68
2023/09/08 12:38:38;;;;;;;5.50;3.88;;;33.50;48.40;;;;;;5084275;27;45214;-68
2023/09/08 12:41:05;;;;;;;5.72;3.90;;;33.60;47.90;;;;;;5086658;27;45364;-69
2023/09/08 12:43:32;;;;;;;5.63;4.00;;;33.60;47.90;;;;;;5081978;27;45353;-69
2023/09/08 12:45:58;;;;;;;7.57;4.10;;;33.70;47.40;;;;;;5085355;27;46137;-70
2023/09/08 12:48:27;;;;;;;14.77;3.90;;;33.90;47.60;;;;;;5088024;27;45364;-70